Flight Track Log - Related Links

Times and Time Zones

All times are in EDT time to prevent confusion due to time zone crossing. See the DAL6246 flight status page for this flight to view local times or setup timezone preferences in your user account.

Time Position Orientation Groundspeed Altitude Reporting Facility
EDT Latitude Longitude Course Direction KTS MPH feet Rate Location/Type
Wed 10:35:55 PM 40.7667 -73.8333 246° West 156 180 1,800  Level New York TRACON
Wed 10:36:55 PM 40.7167 -73.8667 207° Southwest 221 254 4,300 2,800 Climbing New York TRACON
Wed 10:37:55 PM 40.7667 -73.9333 315° West 293 337 7,400 3,250 Climbing New York TRACON
Wed 10:38:55 PM 40.7667 -74.0167 270° West 274 315 10,800 2,762 Climbing New York TRACON
Wed 10:40:01 PM 40.7333 -74.1333 249° West 303 349 13,200 2,168 Climbing New York TRACON
Wed 10:41:00 PM 40.5820 -74.4210 246° West  Level FlightAware Approximate
Wed 10:42:17 PM 40.6289 -74.3942 242° Southwest 396 456 18,100  Level New York Center
Wed 10:43:18 PM 40.5833 -74.5203 245° Southwest 383 441 20,000 1,820 Climbing New York Center
Wed 10:44:19 PM 40.5375 -74.6514 245° Southwest 391 450 21,800 1,765 Climbing New York Center
Wed 10:45:17 PM 40.4892 -74.7853 245° Southwest 397 457 23,500 1,627 Climbing New York Center
Wed 10:46:17 PM 40.4386 -74.9239 244° Southwest 413 475 25,000 1,513 Climbing New York Center
Wed 10:47:16 PM 40.3694 -75.0453 233° Southwest 418 481 26,500 1,488 Climbing New York Center
Wed 10:48:18 PM 40.2906 -75.1572 227° Southwest 424 488 28,000 1,463 Climbing New York Center
Wed 10:49:19 PM 40.2111 -75.2719 228° Southwest 429 494 29,500 1,525 Climbing New York Center
Wed 10:50:16 PM 40.1319 -75.3808 226° Southwest 429 494 31,000 1,261 Climbing New York Center
Wed 10:51:18 PM 40.0503 -75.4919 226° Southwest 429 494 32,000 496 Climbing New York Center
Wed 10:52:17 PM 39.9664 -75.6083 227° Southwest 429 494 32,000  Level New York Center
Wed 10:53:17 PM 39.8931 -75.7194 229° Southwest 441 507 32,000 -248 Level New York Center
Wed 10:54:18 PM 39.8147 -75.8411 230° Southwest 446 513 31,500 -934 Descending New York Center
Wed 10:55:19 PM 39.7367 -75.9594 229° Southwest 446 513 30,100 -2,078 Descending New York Center
Wed 10:57:17 PM 39.5914 -76.1947 231° Southwest 423 487 25,300 -2,400 Descending Washington Center
Wed 10:58:19 PM 39.5114 -76.3125 229° Southwest 428 493 22,900 -1,623 Descending Washington Center
Wed 10:59:19 PM 39.4397 -76.4272 231° Southwest 428 493 22,000 -458 Descending Washington Center
Wed 11:00:17 PM 39.3597 -76.5417 228° Southwest 428 493 22,000  Level Washington Center
Wed 11:01:19 PM 39.2858 -76.6614 231° Southwest 433 498 22,000  Level Washington Center
Wed 11:02:19 PM 39.2097 -76.7836 231° Southwest 433 498 22,000  Level Washington Center
Wed 11:03:27 PM 39.1167 -76.9333 231° Southwest 428 493 22,000 -328 Level Potomac TRACON
Wed 11:04:27 PM 39.0333 -77.0500 227° Southwest 424 488 21,300 -850 Descending Potomac TRACON
Wed 11:05:27 PM 38.9500 -77.1500 223° Southwest 433 498 20,300 -1,000 Descending Potomac TRACON
Wed 11:06:27 PM 38.8500 -77.2500 218° Southwest 442 509 19,300 -1,000 Descending Potomac TRACON
Wed 11:07:27 PM 38.7667 -77.3500 223° Southwest 433 498 18,300 -650 Descending Potomac TRACON
Wed 11:08:27 PM 38.6833 -77.4333 218° Southwest 422 486 18,000 -273 Descending Potomac TRACON
Wed 11:09:17 PM 38.6125 -77.5128 221° Southwest 422 486 17,800 -818 Descending Washington Center
Wed 11:10:17 PM 38.5192 -77.6136 220° Southwest 404 465 16,500 -1,328 Descending Washington Center
Wed 11:11:19 PM 38.4447 -77.6964 221° Southwest 382 440 15,100 -1,400 Descending Washington Center
Wed 11:12:17 PM 38.3789 -77.7661 220° Southwest 344 396 13,700 -1,400 Descending Washington Center
Wed 11:13:19 PM 38.3128 -77.8383 221° Southwest 326 375 12,300 -900 Descending Washington Center
Wed 11:14:17 PM 38.2489 -77.9053 219° Southwest 310 357 11,900 -807 Descending Washington Center
Wed 11:15:18 PM 38.1850 -77.9744 220° Southwest 310 357 10,700 -1,250 Descending Washington Center
Wed 11:16:17 PM 38.1294 -78.0442 225° Southwest 299 344 9,400 -1,289 Descending Washington Center
Wed 11:17:19 PM 38.0819 -78.1189 231° Southwest 285 328 8,100 -1,131 Descending Washington Center
Wed 11:18:19 PM 38.0433 -78.1783 230° Southwest 285 328 7,100 -1,322 Descending Washington Center
Wed 11:19:17 PM 37.9828 -78.2683 230° Southwest 278 320 5,500 -1,475 Descending Washington Center
Wed 11:20:17 PM 37.9353 -78.3406 230° Southwest 278 320 4,200 -1,100 Descending Washington Center
Wed 11:21:17 PM 37.9025 -78.4050 237° Southwest 272 313 3,300 -280 Descending Washington Center
Wed 11:23:30 PM 37.9667 -78.5167 306° West 185 213 3,300 -31 Level Potomac TRACON
Wed 11:24:31 PM 38.0167 -78.5000 15° North 158 182 3,200 -496 Descending Potomac TRACON
Wed 11:25:31 PM 38.0500 -78.4833 21° North 140 161 2,300 -650 Descending Potomac TRACON
Wed 11:26:31 PM 38.0833 -78.4667 21° North 145 167 1,900 900 Descending Potomac TRACON
Wed 11:27:31 PM 38.1500 -78.4500 11° North 219 252 4,100 1,041 Climbing Potomac TRACON
Wed 11:28:32 PM 38.1667 -78.3667 76° East 254 292 4,000 198 Descending Potomac TRACON
Wed 11:29:32 PM 38.1500 -78.3000 108° East 264 304 4,500 496 Climbing Potomac TRACON
Wed 11:30:33 PM 38.0833 -78.3167 191° South 269 310 5,000 248 Climbing Potomac TRACON
Wed 11:31:33 PM 38.0167 -78.3500 202° Southwest 256 295 5,000  Level Potomac TRACON
Wed 11:32:33 PM 37.9500 -78.3167 158° South 263 303 5,000  Level Potomac TRACON
Wed 11:33:33 PM 37.9167 -78.2333 117° Southeast 286 329 5,000 50 Level Potomac TRACON
Wed 11:34:33 PM 37.8667 -78.1333 122° Southeast 285 328 5,100 50 Climbing Potomac TRACON
Wed 11:35:33 PM 37.8333 -78.0500 117° Southeast 284 327 5,100  Level Potomac TRACON
Wed 11:36:33 PM 37.8000 -77.9667 117° Southeast 280 322 5,100  Level Potomac TRACON
Wed 11:37:33 PM 37.7500 -77.8833 127° Southeast 279 321 5,100 -300 Level Potomac TRACON
Wed 11:38:33 PM 37.7000 -77.8167 133° Southeast 283 326 4,500 -600 Descending Potomac TRACON

Login

Don't have an account? Register now (free) for customized features, flight alerts, and more!